sensor_id;sensor_type;location;lat;lon;timestamp;temperature;humidity
10433;DHT22;5263;48.680;9.004;2023-06-14T00:01:38;12.30;95.60
10433;DHT22;5263;48.680;9.004;2023-06-14T00:04:04;12.30;96.10
10433;DHT22;5263;48.680;9.004;2023-06-14T00:06:34;12.20;97.30
10433;DHT22;5263;48.680;9.004;2023-06-14T00:08:59;12.10;97.60
10433;DHT22;5263;48.680;9.004;2023-06-14T00:11:25;12.10;98.10
10433;DHT22;5263;48.680;9.004;2023-06-14T00:13:52;12.20;98.10
10433;DHT22;5263;48.680;9.004;2023-06-14T00:16:18;12.30;98.00
10433;DHT22;5263;48.680;9.004;2023-06-14T00:18:45;12.20;98.60
10433;DHT22;5263;48.680;9.004;2023-06-14T00:21:11;12.10;98.90
10433;DHT22;5263;48.680;9.004;2023-06-14T00:23:37;11.90;99.60
10433;DHT22;5263;48.680;9.004;2023-06-14T00:26:03;11.80;99.60
10433;DHT22;5263;48.680;9.004;2023-06-14T00:28:29;11.80;99.90
10433;DHT22;5263;48.680;9.004;2023-06-14T00:30:54;12.10;99.90
10433;DHT22;5263;48.680;9.004;2023-06-14T00:33:20;12.00;99.90
10433;DHT22;5263;48.680;9.004;2023-06-14T00:35:46;11.90;99.90
10433;DHT22;5263;48.680;9.004;2023-06-14T00:38:12;11.80;99.90
10433;DHT22;5263;48.680;9.004;2023-06-14T00:40:38;11.60;99.90
10433;DHT22;5263;48.680;9.004;2023-06-14T00:43:04;11.60;99.90
10433;DHT22;5263;48.680;9.004;2023-06-14T00:45:29;11.70;99.90
10433;DHT22;5263;48.680;9.004;2023-06-14T00:47:56;11.70;99.90
10433;DHT22;5263;48.680;9.004;2023-06-14T00:50:23;11.50;99.90
10433;DHT22;5263;48.680;9.004;2023-06-14T00:52:49;11.60;99.90
10433;DHT22;5263;48.680;9.004;2023-06-14T00:55:15;11.60;99.90
10433;DHT22;5263;48.680;9.004;2023-06-14T00:57:41;11.50;99.90
10433;DHT22;5263;48.680;9.004;2023-06-14T01:00:07;11.30;99.90
10433;DHT22;5263;48.680;9.004;2023-06-14T01:02:38;11.30;99.90
10433;DHT22;5263;48.680;9.004;2023-06-14T01:05:05;11.30;99.90
10433;DHT22;5263;48.680;9.004;2023-06-14T01:13:28;11.10;99.90
10433;DHT22;5263;48.680;9.004;2023-06-14T01:15:55;11.00;99.90
10433;DHT22;5263;48.680;9.004;2023-06-14T01:18:22;10.90;99.90
10433;DHT22;5263;48.680;9.004;2023-06-14T01:20:51;10.80;99.90
10433;DHT22;5263;48.680;9.004;2023-06-14T01:23:22;10.70;99.90
10433;DHT22;5263;48.680;9.004;2023-06-14T01:25:49;10.80;99.90
10433;DHT22;5263;48.680;9.004;2023-06-14T01:28:20;10.90;99.90
10433;DHT22;5263;48.680;9.004;2023-06-14T01:30:50;10.90;99.90
10433;DHT22;5263;48.680;9.004;2023-06-14T01:33:23;10.80;99.90
10433;DHT22;5263;48.680;9.004;2023-06-14T01:35:53;10.90;99.90
10433;DHT22;5263;48.680;9.004;2023-06-14T01:38:22;10.80;99.90
10433;DHT22;5263;48.680;9.004;2023-06-14T01:40:49;10.70;99.90
10433;DHT22;5263;48.680;9.004;2023-06-14T01:43:16;10.60;99.90
10433;DHT22;5263;48.680;9.004;2023-06-14T01:45:45;10.50;99.90
10433;DHT22;5263;48.680;9.004;2023-06-14T01:48:11;10.50;99.90
10433;DHT22;5263;48.680;9.004;2023-06-14T01:50:37;10.30;99.90
10433;DHT22;5263;48.680;9.004;2023-06-14T01:53:03;10.50;99.90
10433;DHT22;5263;48.680;9.004;2023-06-14T01:55:29;10.40;99.90
10433;DHT22;5263;48.680;9.004;2023-06-14T01:57:55;10.30;99.90
10433;DHT22;5263;48.680;9.004;2023-06-14T02:00:21;10.40;99.90
10433;DHT22;5263;48.680;9.004;2023-06-14T02:02:46;10.30;99.90
10433;DHT22;5263;48.680;9.004;2023-06-14T02:05:12;10.30;99.90
10433;DHT22;5263;48.680;9.004;2023-06-14T02:07:38;10.20;99.90
10433;DHT22;5263;48.680;9.004;2023-06-14T02:10:04;10.20;99.90
10433;DHT22;5263;48.680;9.004;2023-06-14T02:12:30;10.10;99.90
10433;DHT22;5263;48.680;9.004;2023-06-14T02:14:56;10.10;99.90
10433;DHT22;5263;48.680;9.004;2023-06-14T02:17:22;10.00;99.90
10433;DHT22;5263;48.680;9.004;2023-06-14T02:19:48;10.10;99.90
10433;DHT22;5263;48.680;9.004;2023-06-14T02:22:14;10.00;99.90
10433;DHT22;5263;48.680;9.004;2023-06-14T02:24:43;10.00;99.90
10433;DHT22;5263;48.680;9.004;2023-06-14T02:27:09;10.10;99.90
10433;DHT22;5263;48.680;9.004;2023-06-14T02:29:38;10.20;99.90
10433;DHT22;5263;48.680;9.004;2023-06-14T02:32:06;10.10;99.90
10433;DHT22;5263;48.680;9.004;2023-06-14T02:34:33;10.00;99.90
10433;DHT22;5263;48.680;9.004;2023-06-14T02:36:59;10.10;99.90
10433;DHT22;5263;48.680;9.004;2023-06-14T02:39:25;10.00;99.90
10433;DHT22;5263;48.680;9.004;2023-06-14T02:41:51;10.00;99.90
10433;DHT22;5263;48.680;9.004;2023-06-14T02:44:19;9.90;99.90
10433;DHT22;5263;48.680;9.004;2023-06-14T02:46:49;10.00;99.90
10433;DHT22;5263;48.680;9.004;2023-06-14T02:49:14;9.90;99.90
10433;DHT22;5263;48.680;9.004;2023-06-14T02:51:40;9.80;99.90
10433;DHT22;5263;48.680;9.004;2023-06-14T02:54:06;9.80;99.90
10433;DHT22;5263;48.680;9.004;2023-06-14T02:56:31;9.80;99.90
10433;DHT22;5263;48.680;9.004;2023-06-14T02:58:57;9.80;99.90
10433;DHT22;5263;48.680;9.004;2023-06-14T03:01:26;9.80;99.90
10433;DHT22;5263;48.680;9.004;2023-06-14T03:04:00;9.80;99.90
10433;DHT22;5263;48.680;9.004;2023-06-14T03:06:25;9.70;99.90
10433;DHT22;5263;48.680;9.004;2023-06-14T03:08:51;9.70;99.90
10433;DHT22;5263;48.680;9.004;2023-06-14T03:11:20;9.70;99.90
10433;DHT22;5263;48.680;9.004;2023-06-14T03:13:46;9.50;99.90
10433;DHT22;5263;48.680;9.004;2023-06-14T03:16:12;9.40;99.90
10433;DHT22;5263;48.680;9.004;2023-06-14T03:18:37;9.30;99.90
10433;DHT22;5263;48.680;9.004;2023-06-14T03:21:03;9.40;99.90
10433;DHT22;5263;48.680;9.004;2023-06-14T03:23:30;9.40;99.90
10433;DHT22;5263;48.680;9.004;2023-06-14T03:25:56;9.30;99.90
10433;DHT22;5263;48.680;9.004;2023-06-14T03:28:22;9.40;99.90
10433;DHT22;5263;48.680;9.004;2023-06-14T03:30:47;9.40;99.90
10433;DHT22;5263;48.680;9.004;2023-06-14T03:33:13;9.40;99.90
10433;DHT22;5263;48.680;9.004;2023-06-14T03:35:40;9.50;99.90
10433;DHT22;5263;48.680;9.004;2023-06-14T03:38:06;9.40;99.90
10433;DHT22;5263;48.680;9.004;2023-06-14T03:40:32;9.40;99.90
10433;DHT22;5263;48.680;9.004;2023-06-14T03:42:57;9.60;99.90
10433;DHT22;5263;48.680;9.004;2023-06-14T03:45:23;9.50;99.90
10433;DHT22;5263;48.680;9.004;2023-06-14T03:47:48;9.50;99.90
10433;DHT22;5263;48.680;9.004;2023-06-14T03:50:15;9.50;99.90
10433;DHT22;5263;48.680;9.004;2023-06-14T03:52:41;9.50;99.90
10433;DHT22;5263;48.680;9.004;2023-06-14T03:55:09;9.50;99.90
10433;DHT22;5263;48.680;9.004;2023-06-14T03:57:35;9.50;99.90
10433;DHT22;5263;48.680;9.004;2023-06-14T04:00:01;9.50;99.90
10433;DHT22;5263;48.680;9.004;2023-06-14T04:02:26;9.50;99.90
10433;DHT22;5263;48.680;9.004;2023-06-14T04:04:54;9.60;99.90
10433;DHT22;5263;48.680;9.004;2023-06-14T04:07:20;9.60;99.90
10433;DHT22;5263;48.680;9.004;2023-06-14T04:09:46;9.60;99.90
10433;DHT22;5263;48.680;9.004;2023-06-14T04:12:12;9.60;99.90
10433;DHT22;5263;48.680;9.004;2023-06-14T04:14:41;9.70;99.90
10433;DHT22;5263;48.680;9.004;2023-06-14T04:17:07;9.80;99.90
10433;DHT22;5263;48.680;9.004;2023-06-14T04:19:33;10.40;99.90
10433;DHT22;5263;48.680;9.004;2023-06-14T04:21:59;10.80;99.90
10433;DHT22;5263;48.680;9.004;2023-06-14T04:24:26;10.80;99.90
10433;DHT22;5263;48.680;9.004;2023-06-14T04:26:57;10.90;99.90
10433;DHT22;5263;48.680;9.004;2023-06-14T04:29:24;11.10;99.90
10433;DHT22;5263;48.680;9.004;2023-06-14T04:31:53;11.40;99.90
10433;DHT22;5263;48.680;9.004;2023-06-14T04:34:19;11.60;99.90
10433;DHT22;5263;48.680;9.004;2023-06-14T04:36:44;11.60;99.90
10433;DHT22;5263;48.680;9.004;2023-06-14T04:39:18;11.70;99.90
10433;DHT22;5263;48.680;9.004;2023-06-14T04:41:44;11.90;99.90
10433;DHT22;5263;48.680;9.004;2023-06-14T04:44:10;11.90;99.90
10433;DHT22;5263;48.680;9.004;2023-06-14T04:46:38;11.90;99.90
10433;DHT22;5263;48.680;9.004;2023-06-14T04:49:17;11.90;99.90
10433;DHT22;5263;48.680;9.004;2023-06-14T04:51:43;12.00;99.90
10433;DHT22;5263;48.680;9.004;2023-06-14T04:54:12;12.00;99.90
10433;DHT22;5263;48.680;9.004;2023-06-14T04:56:41;12.10;99.90
10433;DHT22;5263;48.680;9.004;2023-06-14T04:59:11;12.10;99.90
10433;DHT22;5263;48.680;9.004;2023-06-14T05:01:38;12.40;99.90
10433;DHT22;5263;48.680;9.004;2023-06-14T05:04:03;12.40;99.90
10433;DHT22;5263;48.680;9.004;2023-06-14T05:06:29;12.40;99.90
10433;DHT22;5263;48.680;9.004;2023-06-14T05:08:56;12.50;99.90
10433;DHT22;5263;48.680;9.004;2023-06-14T05:11:21;12.40;99.90
10433;DHT22;5263;48.680;9.004;2023-06-14T05:13:49;12.60;99.90
10433;DHT22;5263;48.680;9.004;2023-06-14T05:16:15;12.70;99.90
10433;DHT22;5263;48.680;9.004;2023-06-14T05:18:42;12.90;99.90
10433;DHT22;5263;48.680;9.004;2023-06-14T05:21:07;13.10;99.90
10433;DHT22;5263;48.680;9.004;2023-06-14T05:23:34;13.10;99.90
10433;DHT22;5263;48.680;9.004;2023-06-14T05:25:59;13.10;99.90
10433;DHT22;5263;48.680;9.004;2023-06-14T05:28:28;12.80;99.90
10433;DHT22;5263;48.680;9.004;2023-06-14T05:30:53;13.00;99.90
10433;DHT22;5263;48.680;9.004;2023-06-14T05:33:19;13.00;99.90
10433;DHT22;5263;48.680;9.004;2023-06-14T05:35:44;13.00;99.90
10433;DHT22;5263;48.680;9.004;2023-06-14T05:38:10;13.50;99.90
10433;DHT22;5263;48.680;9.004;2023-06-14T05:40:35;13.70;99.90
10433;DHT22;5263;48.680;9.004;2023-06-14T05:43:01;13.60;99.90
10433;DHT22;5263;48.680;9.004;2023-06-14T05:45:27;13.90;99.90
10433;DHT22;5263;48.680;9.004;2023-06-14T05:47:52;14.00;99.90
10433;DHT22;5263;48.680;9.004;2023-06-14T05:50:20;14.10;99.90
10433;DHT22;5263;48.680;9.004;2023-06-14T05:52:45;14.40;99.90
10433;DHT22;5263;48.680;9.004;2023-06-14T05:55:11;14.50;99.90
10433;DHT22;5263;48.680;9.004;2023-06-14T05:57:39;14.80;99.90
10433;DHT22;5263;48.680;9.004;2023-06-14T06:00:09;14.90;99.90
10433;DHT22;5263;48.680;9.004;2023-06-14T06:02:40;15.20;99.90
10433;DHT22;5263;48.680;9.004;2023-06-14T06:05:07;15.30;99.90
10433;DHT22;5263;48.680;9.004;2023-06-14T06:07:33;15.50;99.90
10433;DHT22;5263;48.680;9.004;2023-06-14T06:09:59;15.70;99.90
10433;DHT22;5263;48.680;9.004;2023-06-14T06:12:25;15.80;99.90
10433;DHT22;5263;48.680;9.004;2023-06-14T06:14:51;16.00;99.90
10433;DHT22;5263;48.680;9.004;2023-06-14T06:17:16;16.10;99.90
10433;DHT22;5263;48.680;9.004;2023-06-14T06:19:42;16.30;99.70
10433;DHT22;5263;48.680;9.004;2023-06-14T06:22:07;16.40;98.40
10433;DHT22;5263;48.680;9.004;2023-06-14T06:24:33;16.50;98.20
10433;DHT22;5263;48.680;9.004;2023-06-14T06:26:58;16.60;97.80
10433;DHT22;5263;48.680;9.004;2023-06-14T06:29:24;16.70;97.00
10433;DHT22;5263;48.680;9.004;2023-06-14T06:31:50;16.90;96.80
10433;DHT22;5263;48.680;9.004;2023-06-14T06:34:15;17.00;97.50
10433;DHT22;5263;48.680;9.004;2023-06-14T06:36:41;17.20;96.70
10433;DHT22;5263;48.680;9.004;2023-06-14T06:39:07;17.30;94.30
10433;DHT22;5263;48.680;9.004;2023-06-14T06:41:37;17.40;94.70
10433;DHT22;5263;48.680;9.004;2023-06-14T06:44:05;17.50;94.20
10433;DHT22;5263;48.680;9.004;2023-06-14T06:46:32;17.50;93.00
10433;DHT22;5263;48.680;9.004;2023-06-14T06:48:57;17.70;92.30
10433;DHT22;5263;48.680;9.004;2023-06-14T06:51:23;17.80;92.20
10433;DHT22;5263;48.680;9.004;2023-06-14T06:53:55;17.90;92.40
10433;DHT22;5263;48.680;9.004;2023-06-14T06:56:21;18.00;91.40
10433;DHT22;5263;48.680;9.004;2023-06-14T06:58:49;18.20;90.60
10433;DHT22;5263;48.680;9.004;2023-06-14T07:01:15;18.30;90.60
10433;DHT22;5263;48.680;9.004;2023-06-14T07:03:41;18.60;89.90
10433;DHT22;5263;48.680;9.004;2023-06-14T07:06:07;18.50;88.70
10433;DHT22;5263;48.680;9.004;2023-06-14T07:08:32;18.60;88.60
10433;DHT22;5263;48.680;9.004;2023-06-14T07:10:58;18.80;88.20
10433;DHT22;5263;48.680;9.004;2023-06-14T07:13:23;19.00;87.10
10433;DHT22;5263;48.680;9.004;2023-06-14T07:15:49;19.10;88.50
10433;DHT22;5263;48.680;9.004;2023-06-14T07:18:15;19.20;85.60
10433;DHT22;5263;48.680;9.004;2023-06-14T07:20:41;19.40;86.00
10433;DHT22;5263;48.680;9.004;2023-06-14T07:23:08;19.50;85.40
10433;DHT22;5263;48.680;9.004;2023-06-14T07:25:34;19.40;83.70
10433;DHT22;5263;48.680;9.004;2023-06-14T07:27:59;19.50;84.80
10433;DHT22;5263;48.680;9.004;2023-06-14T07:30:25;19.30;85.20
10433;DHT22;5263;48.680;9.004;2023-06-14T07:32:53;19.30;85.60
10433;DHT22;5263;48.680;9.004;2023-06-14T07:35:18;19.50;86.70
10433;DHT22;5263;48.680;9.004;2023-06-14T07:37:44;19.60;80.30
10433;DHT22;5263;48.680;9.004;2023-06-14T07:40:11;19.60;81.00
10433;DHT22;5263;48.680;9.004;2023-06-14T07:42:36;19.80;83.20
10433;DHT22;5263;48.680;9.004;2023-06-14T07:45:05;20.00;84.20
10433;DHT22;5263;48.680;9.004;2023-06-14T07:47:32;20.20;84.10
10433;DHT22;5263;48.680;9.004;2023-06-14T07:49:57;20.30;81.40
10433;DHT22;5263;48.680;9.004;2023-06-14T07:52:23;20.30;82.00
10433;DHT22;5263;48.680;9.004;2023-06-14T07:54:49;20.10;81.60
10433;DHT22;5263;48.680;9.004;2023-06-14T07:57:14;20.10;83.20
10433;DHT22;5263;48.680;9.004;2023-06-14T07:59:40;20.30;82.70
10433;DHT22;5263;48.680;9.004;2023-06-14T08:02:06;20.40;82.70
10433;DHT22;5263;48.680;9.004;2023-06-14T08:04:32;20.50;81.30
10433;DHT22;5263;48.680;9.004;2023-06-14T08:06:59;20.40;81.60
10433;DHT22;5263;48.680;9.004;2023-06-14T08:09:25;20.50;85.20
10433;DHT22;5263;48.680;9.004;2023-06-14T08:11:50;20.50;84.20
10433;DHT22;5263;48.680;9.004;2023-06-14T08:14:16;20.80;84.50
10433;DHT22;5263;48.680;9.004;2023-06-14T08:16:42;20.90;82.10
10433;DHT22;5263;48.680;9.004;2023-06-14T08:19:07;20.90;82.80
10433;DHT22;5263;48.680;9.004;2023-06-14T08:21:33;21.00;84.00
10433;DHT22;5263;48.680;9.004;2023-06-14T08:24:02;21.00;85.00
10433;DHT22;5263;48.680;9.004;2023-06-14T08:26:27;21.20;82.20
10433;DHT22;5263;48.680;9.004;2023-06-14T08:28:57;21.10;81.20
10433;DHT22;5263;48.680;9.004;2023-06-14T08:31:23;21.30;82.50
10433;DHT22;5263;48.680;9.004;2023-06-14T08:33:50;21.30;80.60
10433;DHT22;5263;48.680;9.004;2023-06-14T08:36:15;20.90;81.50
10433;DHT22;5263;48.680;9.004;2023-06-14T08:38:41;21.00;81.80
10433;DHT22;5263;48.680;9.004;2023-06-14T08:41:07;21.10;82.50
10433;DHT22;5263;48.680;9.004;2023-06-14T08:43:37;21.30;81.20
10433;DHT22;5263;48.680;9.004;2023-06-14T08:46:03;21.40;79.70
10433;DHT22;5263;48.680;9.004;2023-06-14T08:48:30;21.10;78.10
10433;DHT22;5263;48.680;9.004;2023-06-14T08:50:59;20.90;80.90
10433;DHT22;5263;48.680;9.004;2023-06-14T08:53:30;21.30;81.10
10433;DHT22;5263;48.680;9.004;2023-06-14T08:55:58;21.60;80.90
10433;DHT22;5263;48.680;9.004;2023-06-14T08:58:30;21.90;78.80
10433;DHT22;5263;48.680;9.004;2023-06-14T09:00:57;22.00;76.40
10433;DHT22;5263;48.680;9.004;2023-06-14T09:03:24;22.00;76.90
10433;DHT22;5263;48.680;9.004;2023-06-14T09:05:57;22.30;77.00
10433;DHT22;5263;48.680;9.004;2023-06-14T09:08:29;22.30;77.00
10433;DHT22;5263;48.680;9.004;2023-06-14T09:10:56;22.40;75.50
10433;DHT22;5263;48.680;9.004;2023-06-14T09:13:22;22.40;76.40
10433;DHT22;5263;48.680;9.004;2023-06-14T09:15:47;22.60;75.10
10433;DHT22;5263;48.680;9.004;2023-06-14T09:18:13;22.50;71.40
10433;DHT22;5263;48.680;9.004;2023-06-14T09:20:40;22.40;73.60
10433;DHT22;5263;48.680;9.004;2023-06-14T09:23:06;22.50;73.50
10433;DHT22;5263;48.680;9.004;2023-06-14T09:25:41;22.50;75.90
10433;DHT22;5263;48.680;9.004;2023-06-14T09:28:07;22.70;76.90
10433;DHT22;5263;48.680;9.004;2023-06-14T09:30:33;22.50;75.20
10433;DHT22;5263;48.680;9.004;2023-06-14T09:32:59;22.60;77.90
10433;DHT22;5263;48.680;9.004;2023-06-14T09:35:25;22.60;75.90
10433;DHT22;5263;48.680;9.004;2023-06-14T09:37:50;22.80;75.10
10433;DHT22;5263;48.680;9.004;2023-06-14T09:40:20;23.00;74.90
10433;DHT22;5263;48.680;9.004;2023-06-14T09:42:47;23.10;73.20
10433;DHT22;5263;48.680;9.004;2023-06-14T09:45:13;22.70;71.20
10433;DHT22;5263;48.680;9.004;2023-06-14T09:47:39;22.80;72.40
10433;DHT22;5263;48.680;9.004;2023-06-14T09:50:06;23.00;73.90
10433;DHT22;5263;48.680;9.004;2023-06-14T09:52:32;23.40;69.80
10433;DHT22;5263;48.680;9.004;2023-06-14T09:54:59;23.50;70.70
10433;DHT22;5263;48.680;9.004;2023-06-14T09:57:25;23.80;67.90
10433;DHT22;5263;48.680;9.004;2023-06-14T09:59:54;24.00;63.10
10433;DHT22;5263;48.680;9.004;2023-06-14T10:02:25;24.00;64.90
10433;DHT22;5263;48.680;9.004;2023-06-14T10:05:11;24.20;64.10
10433;DHT22;5263;48.680;9.004;2023-06-14T10:07:55;24.50;59.30
10433;DHT22;5263;48.680;9.004;2023-06-14T10:10:21;23.90;58.80
10433;DHT22;5263;48.680;9.004;2023-06-14T10:12:47;23.90;63.90
10433;DHT22;5263;48.680;9.004;2023-06-14T10:15:35;24.30;67.30
10433;DHT22;5263;48.680;9.004;2023-06-14T10:18:27;24.20;62.80
10433;DHT22;5263;48.680;9.004;2023-06-14T10:23:42;24.50;61.40
10433;DHT22;5263;48.680;9.004;2023-06-14T10:26:08;23.80;59.70
10433;DHT22;5263;48.680;9.004;2023-06-14T10:28:37;24.30;63.80
10433;DHT22;5263;48.680;9.004;2023-06-14T10:31:10;24.00;64.40
10433;DHT22;5263;48.680;9.004;2023-06-14T10:33:49;25.40;66.70
10433;DHT22;5263;48.680;9.004;2023-06-14T10:39:00;26.20;57.80
10433;DHT22;5263;48.680;9.004;2023-06-14T10:41:28;26.20;57.40
10433;DHT22;5263;48.680;9.004;2023-06-14T10:46:39;27.40;55.90
10433;DHT22;5263;48.680;9.004;2023-06-14T10:49:04;29.50;51.80
10433;DHT22;5263;48.680;9.004;2023-06-14T10:51:39;29.40;52.20
10433;DHT22;5263;48.680;9.004;2023-06-14T10:54:12;32.00;49.40
10433;DHT22;5263;48.680;9.004;2023-06-14T10:56:49;34.20;43.50
10433;DHT22;5263;48.680;9.004;2023-06-14T10:59:16;33.90;40.60
10433;DHT22;5263;48.680;9.004;2023-06-14T11:04:48;33.70;43.30
10433;DHT22;5263;48.680;9.004;2023-06-14T11:07:47;33.60;42.80
10433;DHT22;5263;48.680;9.004;2023-06-14T11:12:39;35.50;38.70
10433;DHT22;5263;48.680;9.004;2023-06-14T11:15:08;35.80;33.00
10433;DHT22;5263;48.680;9.004;2023-06-14T11:17:33;34.70;36.10
10433;DHT22;5263;48.680;9.004;2023-06-14T11:20:12;37.50;33.60
10433;DHT22;5263;48.680;9.004;2023-06-14T11:22:45;35.30;34.30
10433;DHT22;5263;48.680;9.004;2023-06-14T11:25:12;33.50;35.30
10433;DHT22;5263;48.680;9.004;2023-06-14T11:27:38;33.40;37.00
10433;DHT22;5263;48.680;9.004;2023-06-14T11:30:07;32.40;38.40
10433;DHT22;5263;48.680;9.004;2023-06-14T11:32:33;31.00;39.20
10433;DHT22;5263;48.680;9.004;2023-06-14T11:34:58;29.50;41.80
10433;DHT22;5263;48.680;9.004;2023-06-14T11:37:26;27.70;44.90
10433;DHT22;5263;48.680;9.004;2023-06-14T11:39:59;26.40;46.20
10433;DHT22;5263;48.680;9.004;2023-06-14T11:42:28;27.20;47.50
10433;DHT22;5263;48.680;9.004;2023-06-14T11:44:54;28.00;43.80
10433;DHT22;5263;48.680;9.004;2023-06-14T11:47:20;29.40;45.20
10433;DHT22;5263;48.680;9.004;2023-06-14T11:49:47;30.40;41.60
10433;DHT22;5263;48.680;9.004;2023-06-14T11:52:13;30.30;42.40
10433;DHT22;5263;48.680;9.004;2023-06-14T11:54:39;28.70;44.70
10433;DHT22;5263;48.680;9.004;2023-06-14T11:57:09;28.90;45.20
10433;DHT22;5263;48.680;9.004;2023-06-14T11:59:43;30.40;43.70
10433;DHT22;5263;48.680;9.004;2023-06-14T12:02:09;30.40;43.40
10433;DHT22;5263;48.680;9.004;2023-06-14T12:04:41;29.80;41.80
10433;DHT22;5263;48.680;9.004;2023-06-14T12:07:14;29.40;43.80
10433;DHT22;5263;48.680;9.004;2023-06-14T12:12:28;28.50;47.20
10433;DHT22;5263;48.680;9.004;2023-06-14T12:14:55;30.40;45.40
10433;DHT22;5263;48.680;9.004;2023-06-14T12:17:22;32.30;40.40
10433;DHT22;5263;48.680;9.004;2023-06-14T12:19:49;29.40;43.30
10433;DHT22;5263;48.680;9.004;2023-06-14T12:22:15;29.40;44.30
10433;DHT22;5263;48.680;9.004;2023-06-14T12:24:45;32.10;43.20
10433;DHT22;5263;48.680;9.004;2023-06-14T12:27:11;32.10;42.40
10433;DHT22;5263;48.680;9.004;2023-06-14T12:29:41;31.30;39.90
10433;DHT22;5263;48.680;9.004;2023-06-14T12:32:11;28.90;41.60
10433;DHT22;5263;48.680;9.004;2023-06-14T12:34:37;26.70;46.60
10433;DHT22;5263;48.680;9.004;2023-06-14T12:37:03;27.10;47.10
10433;DHT22;5263;48.680;9.004;2023-06-14T12:39:30;28.40;48.30
10433;DHT22;5263;48.680;9.004;2023-06-14T12:41:57;30.10;42.20
10433;DHT22;5263;48.680;9.004;2023-06-14T12:44:23;30.40;40.90
10433;DHT22;5263;48.680;9.004;2023-06-14T12:46:48;31.40;43.40
10433;DHT22;5263;48.680;9.004;2023-06-14T12:49:16;30.40;41.80
10433;DHT22;5263;48.680;9.004;2023-06-14T12:51:42;31.90;41.30
10433;DHT22;5263;48.680;9.004;2023-06-14T12:54:08;31.70;40.70
10433;DHT22;5263;48.680;9.004;2023-06-14T12:56:33;33.40;40.20
10433;DHT22;5263;48.680;9.004;2023-06-14T12:58:59;31.50;40.30
10433;DHT22;5263;48.680;9.004;2023-06-14T13:01:25;31.30;41.30
10433;DHT22;5263;48.680;9.004;2023-06-14T13:03:51;31.90;39.60
10433;DHT22;5263;48.680;9.004;2023-06-14T13:06:21;32.20;41.00
10433;DHT22;5263;48.680;9.004;2023-06-14T13:08:47;31.60;40.20
10433;DHT22;5263;48.680;9.004;2023-06-14T13:11:13;30.70;41.00
10433;DHT22;5263;48.680;9.004;2023-06-14T13:13:39;28.00;42.40
10433;DHT22;5263;48.680;9.004;2023-06-14T13:16:04;28.60;45.50
10433;DHT22;5263;48.680;9.004;2023-06-14T13:18:30;30.70;41.40
10433;DHT22;5263;48.680;9.004;2023-06-14T13:20:56;30.40;40.30
10433;DHT22;5263;48.680;9.004;2023-06-14T13:23:21;31.90;39.30
10433;DHT22;5263;48.680;9.004;2023-06-14T13:25:47;32.10;39.60
10433;DHT22;5263;48.680;9.004;2023-06-14T13:28:15;33.20;39.90
10433;DHT22;5263;48.680;9.004;2023-06-14T13:30:40;34.30;36.50
10433;DHT22;5263;48.680;9.004;2023-06-14T13:33:06;32.50;37.80
10433;DHT22;5263;48.680;9.004;2023-06-14T13:35:31;32.20;39.80
10433;DHT22;5263;48.680;9.004;2023-06-14T13:37:57;30.70;40.30
10433;DHT22;5263;48.680;9.004;2023-06-14T13:40:22;31.60;39.80
10433;DHT22;5263;48.680;9.004;2023-06-14T13:42:48;32.00;38.20
10433;DHT22;5263;48.680;9.004;2023-06-14T13:45:15;31.80;37.80
10433;DHT22;5263;48.680;9.004;2023-06-14T13:47:41;32.70;37.80
10433;DHT22;5263;48.680;9.004;2023-06-14T13:50:07;32.40;38.90
10433;DHT22;5263;48.680;9.004;2023-06-14T13:52:33;33.40;38.80
10433;DHT22;5263;48.680;9.004;2023-06-14T13:55:00;34.60;35.10
10433;DHT22;5263;48.680;9.004;2023-06-14T13:57:25;34.40;35.80
10433;DHT22;5263;48.680;9.004;2023-06-14T13:59:51;33.50;36.10
10433;DHT22;5263;48.680;9.004;2023-06-14T14:02:18;33.00;35.60
10433;DHT22;5263;48.680;9.004;2023-06-14T14:04:44;32.30;36.30
10433;DHT22;5263;48.680;9.004;2023-06-14T14:07:16;30.90;38.80
10433;DHT22;5263;48.680;9.004;2023-06-14T14:09:42;31.70;38.50
10433;DHT22;5263;48.680;9.004;2023-06-14T14:12:08;30.90;40.60
10433;DHT22;5263;48.680;9.004;2023-06-14T14:14:34;30.90;38.70
10433;DHT22;5263;48.680;9.004;2023-06-14T14:16:59;32.40;38.60
10433;DHT22;5263;48.680;9.004;2023-06-14T14:19:25;33.30;36.10
10433;DHT22;5263;48.680;9.004;2023-06-14T14:21:51;32.50;36.90
10433;DHT22;5263;48.680;9.004;2023-06-14T14:24:18;32.40;37.50
10433;DHT22;5263;48.680;9.004;2023-06-14T14:26:44;31.10;36.90
10433;DHT22;5263;48.680;9.004;2023-06-14T14:29:12;30.10;39.60
10433;DHT22;5263;48.680;9.004;2023-06-14T14:31:38;31.20;39.00
10433;DHT22;5263;48.680;9.004;2023-06-14T14:34:04;32.20;37.60
10433;DHT22;5263;48.680;9.004;2023-06-14T14:36:29;32.80;37.40
10433;DHT22;5263;48.680;9.004;2023-06-14T14:38:55;32.40;37.40
10433;DHT22;5263;48.680;9.004;2023-06-14T14:41:21;32.40;36.90
10433;DHT22;5263;48.680;9.004;2023-06-14T14:43:46;32.90;37.20
10433;DHT22;5263;48.680;9.004;2023-06-14T14:46:12;32.50;37.80
10433;DHT22;5263;48.680;9.004;2023-06-14T14:48:37;33.30;37.70
10433;DHT22;5263;48.680;9.004;2023-06-14T14:51:03;33.10;37.60
10433;DHT22;5263;48.680;9.004;2023-06-14T14:53:29;34.10;36.20
10433;DHT22;5263;48.680;9.004;2023-06-14T14:55:54;33.60;37.10
10433;DHT22;5263;48.680;9.004;2023-06-14T14:58:20;35.10;34.30
10433;DHT22;5263;48.680;9.004;2023-06-14T15:00:46;30.30;36.20
10433;DHT22;5263;48.680;9.004;2023-06-14T15:03:12;29.60;40.60
10433;DHT22;5263;48.680;9.004;2023-06-14T15:05:38;30.10;39.30
10433;DHT22;5263;48.680;9.004;2023-06-14T15:08:04;29.30;40.50
10433;DHT22;5263;48.680;9.004;2023-06-14T15:10:35;28.90;40.20
10433;DHT22;5263;48.680;9.004;2023-06-14T15:13:01;26.90;42.30
10433;DHT22;5263;48.680;9.004;2023-06-14T15:15:27;26.60;44.80
10433;DHT22;5263;48.680;9.004;2023-06-14T15:17:52;26.20;46.30
10433;DHT22;5263;48.680;9.004;2023-06-14T15:20:18;25.80;46.60
10433;DHT22;5263;48.680;9.004;2023-06-14T15:22:43;26.40;47.00
10433;DHT22;5263;48.680;9.004;2023-06-14T15:25:09;26.70;47.60
10433;DHT22;5263;48.680;9.004;2023-06-14T15:27:34;26.80;46.60
10433;DHT22;5263;48.680;9.004;2023-06-14T15:30:01;26.60;47.20
10433;DHT22;5263;48.680;9.004;2023-06-14T15:32:26;26.50;47.80
10433;DHT22;5263;48.680;9.004;2023-06-14T15:34:52;25.90;47.30
10433;DHT22;5263;48.680;9.004;2023-06-14T15:37:17;25.70;49.30
10433;DHT22;5263;48.680;9.004;2023-06-14T15:39:43;25.70;50.30
10433;DHT22;5263;48.680;9.004;2023-06-14T15:42:09;25.50;49.20
10433;DHT22;5263;48.680;9.004;2023-06-14T15:44:35;25.80;49.10
10433;DHT22;5263;48.680;9.004;2023-06-14T15:47:01;25.80;49.40
10433;DHT22;5263;48.680;9.004;2023-06-14T15:49:27;25.30;49.20
10433;DHT22;5263;48.680;9.004;2023-06-14T15:51:53;24.90;49.80
10433;DHT22;5263;48.680;9.004;2023-06-14T15:54:18;24.80;50.70
10433;DHT22;5263;48.680;9.004;2023-06-14T15:56:44;24.90;51.30
10433;DHT22;5263;48.680;9.004;2023-06-14T15:59:10;23.90;50.80
10433;DHT22;5263;48.680;9.004;2023-06-14T16:01:36;23.90;52.40
10433;DHT22;5263;48.680;9.004;2023-06-14T16:04:01;24.40;52.40
10433;DHT22;5263;48.680;9.004;2023-06-14T16:06:27;24.30;51.50
10433;DHT22;5263;48.680;9.004;2023-06-14T16:08:53;24.80;51.50